Time;durP1;ratioP1;P1;durP2;ratioP2;P2;SDS_P1;SDS_P2;PMS_P1;PMS_P2;Temp;Humidity;BMP_temperature;BMP_pressure;BME280_temperature;BME280_humidity;BME280_pressure;Samples;Min_cycle;Max_cycle;Signal;HPM_P1;HPM_P2
2021/03/19 00:05:39;;;;;;;25.42;13.32;;;1.60;99.90;;;;;;12576183;28;20100;-84
2021/03/19 00:11:41;;;;;;;20.67;11.73;;;1.60;99.90;;;;;;12569762;28;20048;-84
2021/03/19 00:17:42;;;;;;;25.60;11.38;;;1.50;99.90;;;;;;12571929;28;20048;-84
2021/03/19 00:24:02;;;;;;;20.02;10.70;;;1.40;99.90;;;;;;12580886;28;20091;-84
2021/03/19 00:30:06;;;;;;;24.50;11.93;;;1.30;99.90;;;;;;12567114;28;20055;-84
2021/03/19 00:36:07;;;;;;;25.52;11.65;;;1.20;99.90;;;;;;12567866;28;20059;-84
2021/03/19 00:42:09;;;;;;;23.65;12.15;;;1.10;99.90;;;;;;12548258;28;20074;-84
2021/03/19 00:48:11;;;;;;;25.45;11.95;;;1.10;99.90;;;;;;12570880;28;20511;-84
2021/03/19 00:54:24;;;;;;;23.13;12.43;;;1.00;99.90;;;;;;12577984;28;20048;-84
2021/03/19 01:00:28;;;;;;;24.48;12.27;;;0.80;99.90;;;;;;12562493;28;20130;-84
2021/03/19 01:06:30;;;;;;;23.23;12.82;;;0.70;99.90;;;;;;12554196;28;20040;-85
2021/03/19 01:12:31;;;;;;;22.77;12.18;;;0.70;99.90;;;;;;12566939;28;20040;-84
2021/03/19 01:18:33;;;;;;;24.52;12.80;;;0.70;99.90;;;;;;12566225;28;20048;-84
2021/03/19 01:24:47;;;;;;;28.02;14.55;;;0.50;99.90;;;;;;12569671;28;20083;-84
2021/03/19 01:30:49;;;;;;;33.40;16.00;;;0.50;99.90;;;;;;12566784;28;20484;-84
2021/03/19 01:36:50;;;;;;;31.88;15.48;;;0.50;99.90;;;;;;12572842;28;20048;-84
2021/03/19 01:43:05;;;;;;;35.08;17.00;;;0.40;99.90;;;;;;12561332;28;20127;-84
2021/03/19 01:49:44;;;;;;;32.20;15.35;;;0.40;99.90;;;;;;12580996;28;20086;-84
2021/03/19 01:56:23;;;;;;;32.15;15.57;;;0.30;99.90;;;;;;12571105;28;20500;-84
2021/03/19 02:03:02;;;;;;;29.42;14.82;;;0.30;99.90;;;;;;12579986;28;20040;-84
2021/03/19 02:09:41;;;;;;;30.50;15.70;;;0.30;99.90;;;;;;12588038;28;20054;-84
2021/03/19 02:16:20;;;;;;;29.50;15.93;;;0.20;99.90;;;;;;12604158;28;20048;-84
2021/03/19 02:22:59;;;;;;;29.08;15.40;;;0.20;99.90;;;;;;12585735;28;20083;-84
2021/03/19 02:29:38;;;;;;;27.92;13.82;;;0.10;99.90;;;;;;12594531;28;20044;-84
2021/03/19 02:35:52;;;;;;;24.88;12.23;;;0.00;99.90;;;;;;12569342;28;20135;-84
2021/03/19 02:41:54;;;;;;;19.17;10.65;;;-0.10;99.90;;;;;;12572504;28;20409;-84
2021/03/19 02:47:55;;;;;;;18.95;10.48;;;-0.20;99.90;;;;;;12575478;28;20119;-84
2021/03/19 02:53:57;;;;;;;18.42;10.25;;;-0.30;99.90;;;;;;12596733;28;20047;-84
2021/03/19 02:59:59;;;;;;;18.95;10.55;;;-0.30;99.90;;;;;;12576990;28;20080;-84
2021/03/19 03:06:01;;;;;;;22.73;11.27;;;-0.40;99.90;;;;;;12600722;28;20078;-84
2021/03/19 03:12:03;;;;;;;21.92;11.10;;;-0.40;99.90;;;;;;12586592;28;20068;-84
2021/03/19 03:18:06;;;;;;;21.90;10.95;;;-0.40;99.90;;;;;;12591709;28;20551;-84
2021/03/19 03:24:08;;;;;;;20.67;10.77;;;-0.40;99.90;;;;;;12604548;28;20044;-84
2021/03/19 03:30:28;;;;;;;24.48;11.50;;;-0.50;99.90;;;;;;12591108;28;20404;-84
2021/03/19 03:36:30;;;;;;;22.50;11.13;;;-0.50;99.90;;;;;;12592663;28;20051;-84
2021/03/19 03:42:32;;;;;;;19.95;10.02;;;-0.50;99.90;;;;;;12569873;28;20044;-84
2021/03/19 03:48:36;;;;;;;21.27;9.80;;;-0.50;99.90;;;;;;12613809;28;20552;-84
2021/03/19 03:54:37;;;;;;;15.93;9.90;;;-0.40;99.90;;;;;;12589334;28;20451;-84
2021/03/19 04:00:40;;;;;;;16.15;9.27;;;-0.20;99.90;;;;;;12580763;28;20138;-84
2021/03/19 04:06:42;;;;;;;17.05;9.68;;;-0.20;99.90;;;;;;12584861;28;20051;-84
2021/03/19 04:12:44;;;;;;;13.65;8.43;;;-0.10;99.90;;;;;;12592316;28;20127;-84
2021/03/19 04:18:46;;;;;;;14.93;8.48;;;-0.10;99.90;;;;;;12603167;28;20044;-83
2021/03/19 04:24:48;;;;;;;11.52;7.50;;;-0.20;99.90;;;;;;12588191;28;20150;-83
2021/03/19 04:30:50;;;;;;;14.88;7.93;;;-0.30;99.90;;;;;;12587851;28;20580;-83
2021/03/19 04:36:52;;;;;;;11.52;7.10;;;-0.40;99.90;;;;;;12586810;28;20056;-84
2021/03/19 04:42:55;;;;;;;12.60;7.70;;;-0.40;99.90;;;;;;12585737;28;20071;-83
2021/03/19 04:48:57;;;;;;;11.90;7.28;;;-0.50;99.90;;;;;;12591816;28;20095;-83
2021/03/19 04:55:01;;;;;;;13.82;7.88;;;-0.50;99.90;;;;;;12582276;28;20492;-83
2021/03/19 05:01:02;;;;;;;13.10;7.10;;;-0.60;99.90;;;;;;12596917;28;20048;-83
2021/03/19 05:07:09;;;;;;;10.07;6.68;;;-0.60;99.90;;;;;;12595643;28;20039;-83
2021/03/19 05:13:10;;;;;;;11.85;7.00;;;-0.60;99.90;;;;;;12612664;28;20510;-83
2021/03/19 05:19:12;;;;;;;10.20;6.70;;;-0.70;99.90;;;;;;12595469;28;20051;-83
2021/03/19 05:25:17;;;;;;;16.98;7.70;;;-0.80;99.90;;;;;;12595019;28;20044;-83
2021/03/19 05:31:19;;;;;;;12.85;6.90;;;-0.80;99.90;;;;;;12583533;28;20456;-83
2021/03/19 05:37:21;;;;;;;12.25;7.18;;;-0.80;99.90;;;;;;12568798;28;20060;-83
2021/03/19 05:43:22;;;;;;;11.30;7.22;;;-0.80;99.90;;;;;;12571928;28;20531;-83
2021/03/19 05:49:29;;;;;;;12.15;7.22;;;-0.90;99.90;;;;;;12578670;28;20087;-84
2021/03/19 05:55:36;;;;;;;14.82;8.43;;;-0.90;99.90;;;;;;12581328;28;20075;-84
2021/03/19 06:01:39;;;;;;;9.48;6.80;;;-1.00;99.90;;;;;;12571317;28;20117;-84
2021/03/19 06:08:07;;;;;;;9.50;6.88;;;-0.90;99.90;;;;;;12562545;28;20055;-84
2021/03/19 06:14:17;;;;;;;11.90;6.55;;;-0.80;99.90;;;;;;12570387;28;20052;-84
2021/03/19 06:20:20;;;;;;;10.40;6.85;;;-0.80;99.90;;;;;;12556532;28;20430;-84
2021/03/19 06:26:28;;;;;;;9.50;5.85;;;-0.60;99.90;;;;;;12563331;28;20048;-84
2021/03/19 06:32:31;;;;;;;9.10;5.22;;;-0.30;99.90;;;;;;12566473;28;20040;-84
2021/03/19 06:38:46;;;;;;;8.07;5.10;;;0.30;99.90;;;;;;12571629;28;20075;-84
2021/03/19 06:45:15;;;;;;;7.23;4.60;;;0.70;99.90;;;;;;12568350;28;21058;-84
2021/03/19 06:51:39;;;;;;;7.97;4.57;;;0.90;99.90;;;;;;12586090;28;20491;-84
2021/03/19 06:57:46;;;;;;;6.60;4.65;;;1.10;99.90;;;;;;12604782;28;20721;-84
2021/03/19 07:04:06;;;;;;;7.03;4.63;;;1.10;99.90;;;;;;12599574;28;20040;-84
2021/03/19 07:10:37;;;;;;;10.30;4.57;;;1.10;99.90;;;;;;12580128;28;20070;-84
2021/03/19 07:17:14;;;;;;;6.75;4.20;;;0.90;99.90;;;;;;12591285;28;20050;-84
2021/03/19 07:23:40;;;;;;;8.60;4.03;;;1.30;99.90;;;;;;12565856;28;20052;-83
2021/03/19 07:30:19;;;;;;;8.77;4.82;;;1.30;99.90;;;;;;12584600;28;20393;-84
2021/03/19 07:36:41;;;;;;;7.43;4.45;;;1.70;99.90;;;;;;12598547;28;20044;-85
2021/03/19 07:42:58;;;;;;;7.43;4.20;;;1.60;99.90;;;;;;12591062;28;20500;-84
2021/03/19 07:49:38;;;;;;;7.93;4.43;;;1.70;99.90;;;;;;12566844;28;20492;-84
2021/03/19 07:55:58;;;;;;;7.68;4.45;;;1.90;99.90;;;;;;12580366;28;20134;-85
2021/03/19 08:02:33;;;;;;;6.88;4.05;;;1.90;99.90;;;;;;12574509;28;20131;-85
2021/03/19 08:08:39;;;;;;;;;;;2.00;99.90;;;;;;12574618;28;20048;-85
2021/03/19 08:15:03;;;;;;;7.30;4.20;;;2.30;99.90;;;;;;12570714;28;19928;-85
2021/03/19 08:21:28;;;;;;;5.85;3.53;;;2.50;99.90;;;;;;12569907;28;20164;-85
2021/03/19 08:27:54;;;;;;;6.30;3.63;;;2.60;99.90;;;;;;12568299;28;20048;-84
2021/03/19 08:34:19;;;;;;;5.40;3.20;;;2.70;99.90;;;;;;12573755;28;20040;-85
2021/03/19 08:40:44;;;;;;;7.25;2.95;;;2.70;99.90;;;;;;12574331;28;20123;-85
2021/03/19 08:47:01;;;;;;;5.47;2.75;;;2.90;99.90;;;;;;12535987;28;20067;-85
2021/03/19 08:53:22;;;;;;;4.57;3.00;;;3.40;99.90;;;;;;12576902;28;20036;-85
2021/03/19 08:59:36;;;;;;;5.72;2.90;;;3.50;99.90;;;;;;12585319;28;20064;-85
2021/03/19 09:06:04;;;;;;;6.60;2.85;;;3.70;99.90;;;;;;12570820;28;20139;-85
2021/03/19 09:12:09;;;;;;;5.45;2.75;;;4.00;99.90;;;;;;12572589;28;20078;-85
2021/03/19 09:18:42;;;;;;;3.45;2.20;;;4.30;99.90;;;;;;12575006;28;20196;-85
2021/03/19 09:25:22;;;;;;;4.63;2.47;;;4.40;99.90;;;;;;12593968;28;20140;-85
2021/03/19 09:31:24;;;;;;;3.92;1.98;;;4.80;99.90;;;;;;12564280;28;20444;-85
2021/03/19 09:37:35;;;;;;;6.82;2.00;;;4.90;99.90;;;;;;12579825;28;20047;-85
2021/03/19 09:43:50;;;;;;;3.25;1.40;;;5.00;99.90;;;;;;12560699;28;20260;-85
2021/03/19 09:50:10;;;;;;;2.67;1.30;;;5.10;99.90;;;;;;12574398;28;20560;-86
2021/03/19 09:56:30;;;;;;;3.15;1.20;;;5.40;99.90;;;;;;12575338;28;20036;-86
2021/03/19 10:02:35;;;;;;;2.45;1.27;;;5.80;99.90;;;;;;12576935;28;20052;-86
2021/03/19 10:08:37;;;;;;;4.03;1.35;;;6.10;99.90;;;;;;12580947;28;20502;-86
2021/03/19 10:14:47;;;;;;;3.22;1.40;;;6.50;99.90;;;;;;12602117;28;20096;-86
2021/03/19 10:20:56;;;;;;;4.47;1.30;;;6.20;99.90;;;;;;12588190;28;21002;-86
2021/03/19 10:27:10;;;;;;;2.97;1.20;;;6.40;99.90;;;;;;12590038;28;20079;-86
2021/03/19 10:33:15;;;;;;;3.33;1.40;;;6.70;99.90;;;;;;12592817;28;20132;-86
2021/03/19 10:39:41;;;;;;;3.42;1.05;;;7.20;99.90;;;;;;12583650;28;20052;-86
2021/03/19 10:45:54;;;;;;;2.00;1.10;;;7.50;99.90;;;;;;12613508;28;20127;-86
2021/03/19 10:52:01;;;;;;;1.77;0.90;;;7.40;99.90;;;;;;12595781;28;20099;-86
2021/03/19 10:58:19;;;;;;;2.47;0.98;;;7.50;99.90;;;;;;12594877;28;20036;-87
2021/03/19 11:04:34;;;;;;;1.60;0.80;;;7.20;99.90;;;;;;12582051;28;20131;-87
2021/03/19 11:10:37;;;;;;;2.22;0.82;;;7.30;99.90;;;;;;12590466;28;20048;-87
2021/03/19 11:16:51;;;;;;;3.38;0.80;;;7.10;99.90;;;;;;12587999;28;21023;-86
2021/03/19 11:22:53;;;;;;;1.67;0.80;;;7.50;99.90;;;;;;12586907;28;20051;-86
2021/03/19 11:29:13;;;;;;;2.88;1.23;;;7.10;99.90;;;;;;12591691;28;20131;-84
2021/03/19 11:35:18;;;;;;;2.95;0.90;;;7.00;99.90;;;;;;12579661;28;20071;-84
2021/03/19 11:41:34;;;;;;;2.00;0.70;;;6.80;99.90;;;;;;12583570;28;20063;-84
2021/03/19 11:47:46;;;;;;;1.33;0.63;;;7.00;99.90;;;;;;12591346;28;20044;-84
2021/03/19 11:53:56;;;;;;;1.92;0.80;;;7.10;99.90;;;;;;12590397;28;20044;-84
2021/03/19 12:00:02;;;;;;;2.92;1.10;;;7.60;99.90;;;;;;12583176;28;20052;-84
2021/03/19 12:06:06;;;;;;;3.88;0.80;;;7.90;99.90;;;;;;12588665;28;20048;-85
2021/03/19 12:12:14;;;;;;;2.28;0.90;;;7.80;99.90;;;;;;12574954;28;20123;-84
2021/03/19 12:18:16;;;;;;;2.67;0.98;;;7.40;99.90;;;;;;12579687;28;20083;-85
2021/03/19 12:24:18;;;;;;;1.58;0.80;;;7.90;99.90;;;;;;12595256;28;20503;-85
2021/03/19 12:30:20;;;;;;;4.07;1.40;;;7.90;99.90;;;;;;12586672;28;20105;-85
2021/03/19 12:36:22;;;;;;;2.78;1.20;;;7.20;99.90;;;;;;12581528;28;20352;-85
2021/03/19 12:42:24;;;;;;;2.60;0.85;;;7.30;99.90;;;;;;12597692;28;20139;-85
2021/03/19 12:48:25;;;;;;;4.65;1.38;;;7.80;99.90;;;;;;12581301;28;20054;-85
2021/03/19 12:54:26;;;;;;;3.20;1.20;;;8.50;99.90;;;;;;12585924;28;20445;-85
2021/03/19 13:00:33;;;;;;;3.55;1.02;;;9.30;99.90;;;;;;12586062;28;20055;-85
2021/03/19 13:06:35;;;;;;;3.50;0.90;;;8.80;99.90;;;;;;12581847;28;20052;-85
2021/03/19 13:12:36;;;;;;;1.55;0.82;;;8.50;99.90;;;;;;12571701;28;20083;-85
2021/03/19 13:18:38;;;;;;;2.40;1.20;;;8.90;99.90;;;;;;12586828;28;20125;-85
2021/03/19 13:24:39;;;;;;;2.95;1.33;;;9.10;99.90;;;;;;12574645;28;20527;-85
2021/03/19 13:30:47;;;;;;;3.92;1.50;;;7.80;99.90;;;;;;12575884;28;20048;-85
2021/03/19 13:36:48;;;;;;;6.18;2.17;;;7.30;99.90;;;;;;12572435;28;20079;-85
2021/03/19 13:42:50;;;;;;;3.80;1.77;;;7.00;99.90;;;;;;12570589;28;20640;-85
2021/03/19 13:48:51;;;;;;;3.03;1.35;;;7.90;99.90;;;;;;12574202;28;20049;-85
2021/03/19 13:54:52;;;;;;;2.83;1.83;;;8.50;99.90;;;;;;12557915;28;20591;-84
2021/03/19 14:00:58;;;;;;;3.75;1.77;;;7.60;99.90;;;;;;12546162;28;20048;-85
2021/03/19 14:07:00;;;;;;;5.32;2.10;;;6.20;99.90;;;;;;12565477;28;20046;-84
2021/03/19 15:15:44;;;;;;;4.53;1.30;;;5.30;99.90;;;;;;12601442;27;758237;-84
2021/03/19 15:21:45;;;;;;;2.53;1.35;;;5.40;99.90;;;;;;12624525;28;20096;-84
2021/03/19 15:27:46;;;;;;;3.15;1.50;;;6.20;99.90;;;;;;12626555;28;20077;-84
2021/03/19 15:33:49;;;;;;;4.22;1.90;;;6.60;99.90;;;;;;12628629;28;20131;-84
2021/03/19 15:39:50;;;;;;;4.88;2.00;;;7.00;99.90;;;;;;12620996;28;20055;-84
2021/03/19 15:45:52;;;;;;;2.28;1.40;;;7.20;99.90;;;;;;12618171;28;20052;-85
2021/03/19 15:51:53;;;;;;;4.63;2.08;;;7.30;99.90;;;;;;12609850;28;20139;-83
2021/03/19 15:57:55;;;;;;;3.78;1.80;;;7.50;99.90;;;;;;12619352;28;20487;-84
2021/03/19 16:03:57;;;;;;;3.20;1.73;;;8.10;99.90;;;;;;12596413;28;20057;-84
2021/03/19 16:09:58;;;;;;;6.65;1.77;;;8.10;99.90;;;;;;12594618;28;20484;-85
2021/03/19 16:16:00;;;;;;;3.95;1.40;;;6.80;99.90;;;;;;12610519;28;20080;-83
2021/03/19 16:22:02;;;;;;;3.35;1.70;;;5.30;99.90;;;;;;12583573;28;20053;-84
2021/03/19 16:28:04;;;;;;;4.15;2.13;;;4.60;99.90;;;;;;12591559;28;20089;-84
2021/03/19 16:34:05;;;;;;;3.97;1.77;;;4.40;99.90;;;;;;12583006;28;20470;-84
2021/03/19 16:40:12;;;;;;;1.80;1.17;;;4.50;99.90;;;;;;12587346;28;20072;-84
2021/03/19 16:46:14;;;;;;;2.53;1.33;;;4.60;99.90;;;;;;12581390;28;20071;-83
2021/03/19 16:52:15;;;;;;;3.85;1.40;;;4.80;99.90;;;;;;12574980;28;20080;-84
2021/03/19 16:58:19;;;;;;;4.55;2.05;;;4.70;99.90;;;;;;12586836;28;20044;-84
2021/03/19 17:04:21;;;;;;;3.10;1.35;;;4.50;99.90;;;;;;12586681;28;20516;-84
2021/03/19 17:10:34;;;;;;;2.70;1.42;;;4.50;99.90;;;;;;12588744;28;20631;-84
2021/03/19 17:16:35;;;;;;;4.28;1.70;;;4.20;99.90;;;;;;12572704;28;20063;-84
2021/03/19 17:22:37;;;;;;;3.17;1.65;;;3.80;99.90;;;;;;12571170;28;20452;-84
2021/03/19 17:28:40;;;;;;;7.18;2.33;;;3.50;99.90;;;;;;12584158;28;20097;-84
2021/03/19 17:34:41;;;;;;;3.42;1.98;;;3.30;99.90;;;;;;12567345;28;20413;-83
2021/03/19 17:40:45;;;;;;;4.28;2.38;;;3.30;99.90;;;;;;12563919;28;20404;-84
2021/03/19 17:46:46;;;;;;;4.97;2.65;;;3.30;99.90;;;;;;12582147;28;20055;-84
2021/03/19 17:52:49;;;;;;;6.15;3.22;;;3.20;99.90;;;;;;12569263;28;20047;-84
2021/03/19 17:58:51;;;;;;;5.57;2.50;;;3.00;99.90;;;;;;12584338;28;20185;-84
2021/03/19 18:04:52;;;;;;;7.00;2.30;;;2.90;99.90;;;;;;12579359;28;20048;-84
2021/03/19 18:10:54;;;;;;;18.65;2.92;;;2.70;99.90;;;;;;12576499;28;20469;-84
2021/03/19 18:16:56;;;;;;;5.32;2.28;;;2.60;99.90;;;;;;12591152;28;20051;-84
2021/03/19 18:23:07;;;;;;;3.95;2.17;;;2.50;99.90;;;;;;12577443;28;20047;-83
2021/03/19 18:29:11;;;;;;;3.25;2.30;;;2.40;99.90;;;;;;12579086;28;20088;-83
2021/03/19 18:35:12;;;;;;;10.77;5.03;;;2.50;99.90;;;;;;12585526;28;20053;-83
2021/03/19 18:41:19;;;;;;;3.30;1.70;;;2.90;99.90;;;;;;12585002;28;20740;-83
2021/03/19 18:47:21;;;;;;;3.28;1.65;;;3.10;99.90;;;;;;12582674;28;20096;-83
2021/03/19 18:53:23;;;;;;;4.68;1.88;;;3.20;99.90;;;;;;12585019;28;20591;-83
2021/03/19 18:59:24;;;;;;;4.45;2.03;;;3.10;99.90;;;;;;12575622;28;20480;-82
2021/03/19 19:05:26;;;;;;;3.78;1.80;;;3.10;99.90;;;;;;12569414;28;20053;-83
2021/03/19 19:11:27;;;;;;;3.50;1.80;;;3.10;99.90;;;;;;12561991;28;20155;-84
2021/03/19 19:17:29;;;;;;;3.90;1.50;;;2.90;99.90;;;;;;12588953;28;20055;-83
2021/03/19 19:23:31;;;;;;;3.85;1.35;;;2.90;99.90;;;;;;12585245;28;20045;-83
2021/03/19 19:29:32;;;;;;;2.15;1.17;;;2.80;99.90;;;;;;12583329;28;20497;-83
2021/03/19 19:35:36;;;;;;;2.78;1.10;;;2.70;99.90;;;;;;12568518;28;20051;-83
2021/03/19 19:41:38;;;;;;;1.87;0.80;;;2.60;99.90;;;;;;12579845;28;20254;-83
2021/03/19 19:47:39;;;;;;;1.58;0.93;;;2.30;99.90;;;;;;12572616;28;20048;-83
2021/03/19 19:53:43;;;;;;;2.92;0.80;;;2.20;99.90;;;;;;12577535;28;20057;-83
2021/03/19 19:59:45;;;;;;;1.50;0.90;;;2.00;99.90;;;;;;12584089;28;20044;-83
2021/03/19 20:05:46;;;;;;;2.47;0.90;;;2.00;99.90;;;;;;12575838;28;20104;-83
2021/03/19 20:11:48;;;;;;;2.80;1.30;;;1.90;99.90;;;;;;12581285;28;20101;-83
2021/03/19 20:17:49;;;;;;;4.30;0.90;;;1.80;99.90;;;;;;12583368;28;20041;-83
2021/03/19 20:23:51;;;;;;;3.08;0.95;;;1.80;99.90;;;;;;12570693;28;20056;-83
2021/03/19 20:29:53;;;;;;;2.45;1.00;;;1.70;99.90;;;;;;12593821;28;20547;-83
2021/03/19 20:35:54;;;;;;;2.30;0.85;;;1.60;99.90;;;;;;12582977;28;20075;-83
2021/03/19 20:41:55;;;;;;;3.97;1.02;;;1.50;99.90;;;;;;12583572;28;20630;-83
2021/03/19 20:48:07;;;;;;;4.55;1.20;;;1.50;99.90;;;;;;12581000;28;20398;-83
2021/03/19 20:54:09;;;;;;;5.72;1.10;;;1.40;99.90;;;;;;12590234;28;20040;-83
2021/03/19 21:00:37;;;;;;;2.97;1.30;;;1.20;99.90;;;;;;12595850;28;20101;-83
2021/03/19 21:06:47;;;;;;;2.47;1.38;;;1.10;99.90;;;;;;12577601;28;20096;-83
2021/03/19 21:12:49;;;;;;;2.60;1.25;;;1.00;99.90;;;;;;12580937;28;20131;-83
2021/03/19 21:18:50;;;;;;;3.78;1.20;;;0.90;99.90;;;;;;12606392;28;20384;-83
2021/03/19 21:24:52;;;;;;;3.17;1.40;;;0.80;99.90;;;;;;12637809;28;20073;-83
2021/03/19 21:30:53;;;;;;;3.35;1.10;;;0.70;99.90;;;;;;12642091;28;20074;-83
2021/03/19 21:36:56;;;;;;;6.57;1.48;;;0.60;99.90;;;;;;12646769;28;20048;-83
2021/03/19 21:42:58;;;;;;;3.97;1.25;;;0.60;99.90;;;;;;12597496;28;20059;-83
2021/03/19 21:48:59;;;;;;;3.97;1.95;;;0.50;99.90;;;;;;12595655;28;20099;-83
2021/03/19 21:55:00;;;;;;;3.63;1.48;;;0.30;99.90;;;;;;12600779;28;20040;-83
2021/03/19 22:01:06;;;;;;;4.95;1.52;;;0.30;99.90;;;;;;12612380;28;20055;-83
2021/03/19 22:07:07;;;;;;;3.13;1.48;;;0.10;99.90;;;;;;12590920;28;20400;-83
2021/03/19 22:13:09;;;;;;;2.67;1.42;;;-0.10;99.90;;;;;;12581029;28;20143;-83
2021/03/19 22:19:11;;;;;;;5.68;1.60;;;-0.20;99.90;;;;;;12589372;28;20110;-83
2021/03/19 22:25:13;;;;;;;4.72;1.48;;;-0.20;99.90;;;;;;12573257;28;20116;-83
2021/03/19 22:31:15;;;;;;;3.35;1.48;;;-0.30;99.90;;;;;;12584372;28;20076;-83
2021/03/19 22:37:16;;;;;;;3.60;1.40;;;-0.30;99.90;;;;;;12592568;28;20052;-83
2021/03/19 22:43:17;;;;;;;4.45;1.70;;;-0.30;99.90;;;;;;12575190;28;20036;-83
2021/03/19 22:49:19;;;;;;;7.05;1.70;;;-0.50;99.90;;;;;;12593517;28;20124;-83
2021/03/19 22:55:22;;;;;;;6.40;1.67;;;-0.70;99.90;;;;;;12578569;28;20048;-83
2021/03/19 23:01:50;;;;;;;4.97;1.83;;;-0.70;99.90;;;;;;12579723;28;20103;-82
2021/03/19 23:07:53;;;;;;;5.63;1.65;;;-0.60;99.90;;;;;;12591290;28;20198;-82
2021/03/19 23:13:57;;;;;;;6.78;1.85;;;-0.60;99.90;;;;;;12589671;28;20421;-83
2021/03/19 23:19:59;;;;;;;3.40;1.70;;;-0.60;99.90;;;;;;12579598;28;20115;-82
2021/03/19 23:26:00;;;;;;;3.38;1.33;;;-0.70;99.90;;;;;;12591744;28;20172;-83
2021/03/19 23:32:02;;;;;;;5.68;1.92;;;-0.80;99.90;;;;;;12581281;28;20489;-83
2021/03/19 23:38:05;;;;;;;4.85;2.08;;;-0.80;99.90;;;;;;12594974;28;20511;-82
2021/03/19 23:44:08;;;;;;;;;;;-0.70;99.90;;;;;;12593458;28;20067;-82
2021/03/19 23:50:10;;;;;;;5.53;1.77;;;-0.80;99.90;;;;;;12583509;28;20369;-82
2021/03/19 23:56:14;;;;;;;3.20;1.65;;;-1.00;99.90;;;;;;12562604;28;20085;-82
